Airfield :







YOU CAN JOIN US ON...

 
LOGIN :

Register | Disclaimer

   EN    FR    IT 

 









Legend :    VFR   Marginal VFR   IFR   Intensive IFR   Very Intensive IFR
Visi :
Ceiling :
>= 8 km
>= 3000ft
5 to 8 km
1000 to 3000 ft
1500m to 5 km
500 to 1000 ft
800 to 1500m
200 to 500 ft
< 800m
< 200 ft
Symbols :   Thunderstorms  Fog  Heavy snow  Heavy precipitations  Wind > 20 kt






- Airport Elevation : 40 ft
- IATA code : YRF


CYCA - Cartwright

CURRENT METAR :
  • 071000Z AUTO 31006KT 9SM BKN032 OVC041 07/01 A2981 RMK SLP097

EXPIRED METARs :
  • 070900Z AUTO 28005KT 9SM OVC034 07/01 A2980 RMK SLP092
  • 070800Z AUTO 29005KT 9SM OVC034 07/01 A2979 RMK SLP090

TAF TAF CYCA
Valid from the 07 at 08:00 until the 07 at 20:00 UTC


070738Z 0708/0720 25005KT P6SM FEW020 BKN040
TEMPO 0708/0712 BKN020 BKN040
FM071200 29010G20KT P6SM BKN040
BECMG 0718/0720 05008KT RMK FCST BASED ON AUTO OBS. NXT FCST BY 071400Z
CZQX FIR / North America



MET'MAP, your aeronautical weather chart ! - Copyright ORBIFLY December 2007 - Disclaimer

ORBIFLY MET'MAP TEAM :

Programming & Development : Alexandra Zaïnal
Concept & original design : Baudouin d'Aumeries
Assistance for programming : Marc-Olivier Méhu
Technical & hardware support : Manuel Goepfert

Contact : metmap@orbifly.com




SOURCES & CREDITS :

   NOAA